sensor_id;sensor_type;location;lat;lon;timestamp;P1;durP1;ratioP1;P2;durP2;ratioP2
54849;SDS011;47660;51.334;12.396;2022-10-18T00:01:37;4.37;;;2.07;;
54849;SDS011;47660;51.334;12.396;2022-10-18T00:04:02;3.45;;;2.05;;
54849;SDS011;47660;51.334;12.396;2022-10-18T00:06:28;2.80;;;1.90;;
54849;SDS011;47660;51.334;12.396;2022-10-18T00:08:53;3.55;;;1.98;;
54849;SDS011;47660;51.334;12.396;2022-10-18T00:11:18;2.90;;;1.95;;
54849;SDS011;47660;51.334;12.396;2022-10-18T00:13:44;4.82;;;2.25;;
54849;SDS011;47660;51.334;12.396;2022-10-18T00:16:12;3.58;;;2.00;;
54849;SDS011;47660;51.334;12.396;2022-10-18T00:18:37;5.80;;;2.00;;
54849;SDS011;47660;51.334;12.396;2022-10-18T00:21:04;4.05;;;2.20;;
54849;SDS011;47660;51.334;12.396;2022-10-18T00:23:30;2.97;;;2.10;;
54849;SDS011;47660;51.334;12.396;2022-10-18T00:28:26;3.72;;;2.30;;
54849;SDS011;47660;51.334;12.396;2022-10-18T00:30:52;3.60;;;2.10;;
54849;SDS011;47660;51.334;12.396;2022-10-18T00:33:17;4.20;;;2.25;;
54849;SDS011;47660;51.334;12.396;2022-10-18T00:35:44;3.60;;;2.08;;
54849;SDS011;47660;51.334;12.396;2022-10-18T00:38:09;5.07;;;2.22;;
54849;SDS011;47660;51.334;12.396;2022-10-18T00:40:35;2.60;;;1.75;;
54849;SDS011;47660;51.334;12.396;2022-10-18T00:43:00;2.40;;;1.70;;
54849;SDS011;47660;51.334;12.396;2022-10-18T00:45:27;3.80;;;2.33;;
54849;SDS011;47660;51.334;12.396;2022-10-18T00:47:57;3.97;;;1.73;;
54849;SDS011;47660;51.334;12.396;2022-10-18T00:50:23;3.13;;;2.20;;
54849;SDS011;47660;51.334;12.396;2022-10-18T00:52:54;2.97;;;2.10;;
54849;SDS011;47660;51.334;12.396;2022-10-18T00:55:22;2.10;;;1.83;;
54849;SDS011;47660;51.334;12.396;2022-10-18T00:57:47;4.13;;;2.10;;
54849;SDS011;47660;51.334;12.396;2022-10-18T01:00:15;3.40;;;2.08;;
54849;SDS011;47660;51.334;12.396;2022-10-18T01:02:42;3.67;;;2.00;;
54849;SDS011;47660;51.334;12.396;2022-10-18T01:05:09;3.58;;;2.25;;
54849;SDS011;47660;51.334;12.396;2022-10-18T01:07:49;2.47;;;1.92;;
54849;SDS011;47660;51.334;12.396;2022-10-18T01:15:29;4.10;;;2.50;;
54849;SDS011;47660;51.334;12.396;2022-10-18T01:18:08;2.72;;;1.95;;
54849;SDS011;47660;51.334;12.396;2022-10-18T01:25:56;4.37;;;2.23;;
54849;SDS011;47660;51.334;12.396;2022-10-18T01:31:09;2.88;;;2.10;;
54849;SDS011;47660;51.334;12.396;2022-10-18T01:33:45;3.08;;;2.22;;
54849;SDS011;47660;51.334;12.396;2022-10-18T01:36:21;4.53;;;2.10;;
54849;SDS011;47660;51.334;12.396;2022-10-18T01:38:47;4.20;;;2.30;;
54849;SDS011;47660;51.334;12.396;2022-10-18T01:41:13;3.72;;;2.15;;
54849;SDS011;47660;51.334;12.396;2022-10-18T01:43:40;5.05;;;2.30;;
54849;SDS011;47660;51.334;12.396;2022-10-18T01:46:06;4.45;;;2.25;;
54849;SDS011;47660;51.334;12.396;2022-10-18T01:48:34;3.45;;;2.10;;
54849;SDS011;47660;51.334;12.396;2022-10-18T01:51:02;3.28;;;2.40;;
54849;SDS011;47660;51.334;12.396;2022-10-18T01:53:31;5.13;;;2.63;;
54849;SDS011;47660;51.334;12.396;2022-10-18T01:56:03;3.95;;;2.35;;
54849;SDS011;47660;51.334;12.396;2022-10-18T02:01:05;4.43;;;2.63;;
54849;SDS011;47660;51.334;12.396;2022-10-18T02:03:32;3.08;;;2.25;;
54849;SDS011;47660;51.334;12.396;2022-10-18T02:06:02;3.90;;;2.38;;
54849;SDS011;47660;51.334;12.396;2022-10-18T02:10:58;2.50;;;1.70;;
54849;SDS011;47660;51.334;12.396;2022-10-18T02:13:26;4.13;;;2.50;;
54849;SDS011;47660;51.334;12.396;2022-10-18T02:15:56;4.90;;;2.95;;
54849;SDS011;47660;51.334;12.396;2022-10-18T02:18:24;3.72;;;2.10;;
54849;SDS011;47660;51.334;12.396;2022-10-18T02:20:52;6.18;;;2.20;;
54849;SDS011;47660;51.334;12.396;2022-10-18T02:23:19;3.72;;;2.17;;
54849;SDS011;47660;51.334;12.396;2022-10-18T02:25:45;4.20;;;2.45;;
54849;SDS011;47660;51.334;12.396;2022-10-18T02:28:11;4.47;;;2.75;;
54849;SDS011;47660;51.334;12.396;2022-10-18T02:30:39;5.25;;;2.28;;
54849;SDS011;47660;51.334;12.396;2022-10-18T02:33:11;4.15;;;1.73;;
54849;SDS011;47660;51.334;12.396;2022-10-18T02:35:40;5.30;;;2.20;;
54849;SDS011;47660;51.334;12.396;2022-10-18T02:38:08;4.20;;;2.00;;
54849;SDS011;47660;51.334;12.396;2022-10-18T02:40:34;6.13;;;2.70;;
54849;SDS011;47660;51.334;12.396;2022-10-18T02:43:00;3.38;;;2.50;;
54849;SDS011;47660;51.334;12.396;2022-10-18T02:45:27;3.92;;;2.40;;
54849;SDS011;47660;51.334;12.396;2022-10-18T02:47:53;3.20;;;2.40;;
54849;SDS011;47660;51.334;12.396;2022-10-18T02:50:18;4.85;;;2.63;;
54849;SDS011;47660;51.334;12.396;2022-10-18T02:52:43;6.07;;;2.87;;
54849;SDS011;47660;51.334;12.396;2022-10-18T02:55:08;4.78;;;2.55;;
54849;SDS011;47660;51.334;12.396;2022-10-18T02:57:34;4.60;;;2.90;;
54849;SDS011;47660;51.334;12.396;2022-10-18T02:59:59;3.28;;;1.88;;
54849;SDS011;47660;51.334;12.396;2022-10-18T03:02:25;4.28;;;2.40;;
54849;SDS011;47660;51.334;12.396;2022-10-18T03:04:52;6.72;;;2.15;;
54849;SDS011;47660;51.334;12.396;2022-10-18T03:07:17;6.97;;;2.57;;
54849;SDS011;47660;51.334;12.396;2022-10-18T03:09:43;4.30;;;2.20;;
54849;SDS011;47660;51.334;12.396;2022-10-18T03:12:08;4.22;;;2.40;;
54849;SDS011;47660;51.334;12.396;2022-10-18T03:14:33;6.30;;;2.70;;
54849;SDS011;47660;51.334;12.396;2022-10-18T03:16:58;4.60;;;2.40;;
54849;SDS011;47660;51.334;12.396;2022-10-18T03:19:24;4.03;;;2.37;;
54849;SDS011;47660;51.334;12.396;2022-10-18T03:21:49;3.53;;;2.20;;
54849;SDS011;47660;51.334;12.396;2022-10-18T03:24:16;4.70;;;2.47;;
54849;SDS011;47660;51.334;12.396;2022-10-18T03:26:42;4.15;;;2.30;;
54849;SDS011;47660;51.334;12.396;2022-10-18T03:29:08;3.45;;;2.58;;
54849;SDS011;47660;51.334;12.396;2022-10-18T03:31:36;3.63;;;2.63;;
54849;SDS011;47660;51.334;12.396;2022-10-18T03:34:01;3.70;;;2.70;;
54849;SDS011;47660;51.334;12.396;2022-10-18T03:36:27;4.75;;;2.80;;
54849;SDS011;47660;51.334;12.396;2022-10-18T03:38:52;4.35;;;2.80;;
54849;SDS011;47660;51.334;12.396;2022-10-18T03:41:20;3.53;;;2.47;;
54849;SDS011;47660;51.334;12.396;2022-10-18T03:43:45;4.22;;;2.60;;
54849;SDS011;47660;51.334;12.396;2022-10-18T03:46:10;3.95;;;2.65;;
54849;SDS011;47660;51.334;12.396;2022-10-18T03:48:36;3.08;;;2.28;;
54849;SDS011;47660;51.334;12.396;2022-10-18T03:51:01;3.17;;;2.30;;
54849;SDS011;47660;51.334;12.396;2022-10-18T03:53:26;5.47;;;2.70;;
54849;SDS011;47660;51.334;12.396;2022-10-18T03:55:52;5.80;;;3.33;;
54849;SDS011;47660;51.334;12.396;2022-10-18T03:58:17;6.63;;;3.22;;
54849;SDS011;47660;51.334;12.396;2022-10-18T04:00:42;5.78;;;2.17;;
54849;SDS011;47660;51.334;12.396;2022-10-18T04:03:08;4.53;;;2.93;;
54849;SDS011;47660;51.334;12.396;2022-10-18T04:05:36;6.20;;;2.85;;
54849;SDS011;47660;51.334;12.396;2022-10-18T04:08:01;3.60;;;2.50;;
54849;SDS011;47660;51.334;12.396;2022-10-18T04:10:27;4.25;;;2.60;;
54849;SDS011;47660;51.334;12.396;2022-10-18T04:12:52;6.28;;;2.78;;
54849;SDS011;47660;51.334;12.396;2022-10-18T04:15:17;4.72;;;2.22;;
54849;SDS011;47660;51.334;12.396;2022-10-18T04:17:43;6.45;;;2.80;;
54849;SDS011;47660;51.334;12.396;2022-10-18T04:20:10;4.85;;;2.50;;
54849;SDS011;47660;51.334;12.396;2022-10-18T04:22:38;5.28;;;2.65;;
54849;SDS011;47660;51.334;12.396;2022-10-18T04:25:03;4.82;;;3.25;;
54849;SDS011;47660;51.334;12.396;2022-10-18T04:27:28;3.78;;;2.42;;
54849;SDS011;47660;51.334;12.396;2022-10-18T04:29:54;4.53;;;3.08;;
54849;SDS011;47660;51.334;12.396;2022-10-18T04:32:19;5.10;;;3.03;;
54849;SDS011;47660;51.334;12.396;2022-10-18T04:34:46;7.00;;;3.00;;
54849;SDS011;47660;51.334;12.396;2022-10-18T04:37:12;6.63;;;3.07;;
54849;SDS011;47660;51.334;12.396;2022-10-18T04:39:37;4.03;;;2.42;;
54849;SDS011;47660;51.334;12.396;2022-10-18T04:42:02;4.67;;;2.77;;
54849;SDS011;47660;51.334;12.396;2022-10-18T04:44:27;4.88;;;2.70;;
54849;SDS011;47660;51.334;12.396;2022-10-18T04:46:55;5.23;;;2.60;;
54849;SDS011;47660;51.334;12.396;2022-10-18T04:49:20;5.65;;;2.75;;
54849;SDS011;47660;51.334;12.396;2022-10-18T04:51:46;5.35;;;3.05;;
54849;SDS011;47660;51.334;12.396;2022-10-18T04:54:11;3.88;;;2.67;;
54849;SDS011;47660;51.334;12.396;2022-10-18T04:56:36;6.15;;;3.22;;
54849;SDS011;47660;51.334;12.396;2022-10-18T04:59:02;5.68;;;3.55;;
54849;SDS011;47660;51.334;12.396;2022-10-18T05:01:29;5.82;;;3.25;;
54849;SDS011;47660;51.334;12.396;2022-10-18T05:03:57;6.43;;;3.20;;
54849;SDS011;47660;51.334;12.396;2022-10-18T05:06:22;5.00;;;3.00;;
54849;SDS011;47660;51.334;12.396;2022-10-18T05:08:48;8.68;;;2.95;;
54849;SDS011;47660;51.334;12.396;2022-10-18T05:11:13;3.47;;;2.80;;
54849;SDS011;47660;51.334;12.396;2022-10-18T05:13:38;5.50;;;3.20;;
54849;SDS011;47660;51.334;12.396;2022-10-18T05:16:04;5.15;;;3.33;;
54849;SDS011;47660;51.334;12.396;2022-10-18T05:18:29;6.30;;;2.78;;
54849;SDS011;47660;51.334;12.396;2022-10-18T05:20:55;4.57;;;2.70;;
54849;SDS011;47660;51.334;12.396;2022-10-18T05:23:20;3.85;;;2.53;;
54849;SDS011;47660;51.334;12.396;2022-10-18T05:25:45;7.43;;;3.07;;
54849;SDS011;47660;51.334;12.396;2022-10-18T05:28:10;7.00;;;3.90;;
54849;SDS011;47660;51.334;12.396;2022-10-18T05:30:39;4.47;;;2.78;;
54849;SDS011;47660;51.334;12.396;2022-10-18T05:33:07;4.40;;;2.80;;
54849;SDS011;47660;51.334;12.396;2022-10-18T05:35:33;4.28;;;2.63;;
54849;SDS011;47660;51.334;12.396;2022-10-18T05:38:01;3.67;;;2.53;;
54849;SDS011;47660;51.334;12.396;2022-10-18T05:40:27;6.63;;;2.70;;
54849;SDS011;47660;51.334;12.396;2022-10-18T05:42:52;4.45;;;2.95;;
54849;SDS011;47660;51.334;12.396;2022-10-18T05:45:18;6.90;;;3.63;;
54849;SDS011;47660;51.334;12.396;2022-10-18T05:47:45;5.60;;;3.40;;
54849;SDS011;47660;51.334;12.396;2022-10-18T05:50:10;4.13;;;2.93;;
54849;SDS011;47660;51.334;12.396;2022-10-18T05:52:38;5.75;;;3.20;;
54849;SDS011;47660;51.334;12.396;2022-10-18T05:55:03;5.90;;;3.50;;
54849;SDS011;47660;51.334;12.396;2022-10-18T05:57:29;6.63;;;3.92;;
54849;SDS011;47660;51.334;12.396;2022-10-18T05:59:54;5.80;;;3.33;;
54849;SDS011;47660;51.334;12.396;2022-10-18T06:02:19;7.83;;;4.03;;
54849;SDS011;47660;51.334;12.396;2022-10-18T06:04:45;6.50;;;3.93;;
54849;SDS011;47660;51.334;12.396;2022-10-18T06:07:10;5.97;;;4.03;;
54849;SDS011;47660;51.334;12.396;2022-10-18T06:09:36;8.95;;;3.90;;
54849;SDS011;47660;51.334;12.396;2022-10-18T06:12:01;8.18;;;3.90;;
54849;SDS011;47660;51.334;12.396;2022-10-18T06:14:26;7.35;;;4.30;;
54849;SDS011;47660;51.334;12.396;2022-10-18T06:16:56;8.77;;;4.85;;
54849;SDS011;47660;51.334;12.396;2022-10-18T06:19:22;10.05;;;5.05;;
54849;SDS011;47660;51.334;12.396;2022-10-18T06:21:49;7.68;;;4.28;;
54849;SDS011;47660;51.334;12.396;2022-10-18T06:24:15;9.60;;;4.45;;
54849;SDS011;47660;51.334;12.396;2022-10-18T06:26:43;8.05;;;4.55;;
54849;SDS011;47660;51.334;12.396;2022-10-18T06:29:08;9.40;;;4.50;;
54849;SDS011;47660;51.334;12.396;2022-10-18T06:31:33;10.20;;;4.93;;
54849;SDS011;47660;51.334;12.396;2022-10-18T06:33:59;15.80;;;4.45;;
54849;SDS011;47660;51.334;12.396;2022-10-18T06:36:27;7.95;;;4.22;;
54849;SDS011;47660;51.334;12.396;2022-10-18T06:38:53;6.80;;;4.30;;
54849;SDS011;47660;51.334;12.396;2022-10-18T06:41:18;7.90;;;4.07;;
54849;SDS011;47660;51.334;12.396;2022-10-18T06:43:53;7.70;;;3.75;;
54849;SDS011;47660;51.334;12.396;2022-10-18T06:46:21;10.30;;;4.15;;
54849;SDS011;47660;51.334;12.396;2022-10-18T06:48:48;5.95;;;3.75;;
54849;SDS011;47660;51.334;12.396;2022-10-18T06:51:14;5.78;;;3.70;;
54849;SDS011;47660;51.334;12.396;2022-10-18T06:53:39;9.15;;;3.95;;
54849;SDS011;47660;51.334;12.396;2022-10-18T06:56:09;8.18;;;4.47;;
54849;SDS011;47660;51.334;12.396;2022-10-18T06:58:37;6.32;;;4.03;;
54849;SDS011;47660;51.334;12.396;2022-10-18T07:01:06;6.72;;;4.00;;
54849;SDS011;47660;51.334;12.396;2022-10-18T07:03:31;7.18;;;4.28;;
54849;SDS011;47660;51.334;12.396;2022-10-18T07:06:05;8.18;;;4.70;;
54849;SDS011;47660;51.334;12.396;2022-10-18T07:08:31;8.43;;;4.75;;
54849;SDS011;47660;51.334;12.396;2022-10-18T07:10:58;12.20;;;4.85;;
54849;SDS011;47660;51.334;12.396;2022-10-18T07:13:26;6.57;;;3.78;;
54849;SDS011;47660;51.334;12.396;2022-10-18T07:16:02;9.10;;;4.93;;
54849;SDS011;47660;51.334;12.396;2022-10-18T07:20:52;10.60;;;4.30;;
54849;SDS011;47660;51.334;12.396;2022-10-18T07:23:17;9.35;;;4.70;;
54849;SDS011;47660;51.334;12.396;2022-10-18T07:25:45;8.88;;;4.47;;
54849;SDS011;47660;51.334;12.396;2022-10-18T07:28:14;9.50;;;4.50;;
54849;SDS011;47660;51.334;12.396;2022-10-18T07:30:41;7.75;;;4.53;;
54849;SDS011;47660;51.334;12.396;2022-10-18T07:33:07;9.32;;;4.78;;
54849;SDS011;47660;51.334;12.396;2022-10-18T07:35:32;10.13;;;6.03;;
54849;SDS011;47660;51.334;12.396;2022-10-18T07:37:57;10.93;;;4.80;;
54849;SDS011;47660;51.334;12.396;2022-10-18T07:40:31;9.93;;;4.77;;
54849;SDS011;47660;51.334;12.396;2022-10-18T07:42:57;11.80;;;4.85;;
54849;SDS011;47660;51.334;12.396;2022-10-18T07:45:24;7.03;;;4.43;;
54849;SDS011;47660;51.334;12.396;2022-10-18T07:47:53;10.32;;;4.55;;
54849;SDS011;47660;51.334;12.396;2022-10-18T07:50:18;6.65;;;3.90;;
54849;SDS011;47660;51.334;12.396;2022-10-18T07:52:43;8.30;;;4.35;;
54849;SDS011;47660;51.334;12.396;2022-10-18T07:55:09;10.10;;;4.82;;
54849;SDS011;47660;51.334;12.396;2022-10-18T07:57:34;6.20;;;4.00;;
54849;SDS011;47660;51.334;12.396;2022-10-18T07:59:59;8.03;;;4.27;;
54849;SDS011;47660;51.334;12.396;2022-10-18T08:02:24;6.90;;;3.22;;
54849;SDS011;47660;51.334;12.396;2022-10-18T08:04:50;5.07;;;3.10;;
54849;SDS011;47660;51.334;12.396;2022-10-18T08:07:15;5.82;;;3.33;;
54849;SDS011;47660;51.334;12.396;2022-10-18T08:09:40;4.68;;;3.05;;
54849;SDS011;47660;51.334;12.396;2022-10-18T08:12:05;4.63;;;3.08;;
54849;SDS011;47660;51.334;12.396;2022-10-18T08:14:31;8.65;;;3.17;;
54849;SDS011;47660;51.334;12.396;2022-10-18T08:16:56;5.20;;;2.53;;
54849;SDS011;47660;51.334;12.396;2022-10-18T08:19:21;6.47;;;2.50;;
54849;SDS011;47660;51.334;12.396;2022-10-18T08:21:46;3.50;;;1.90;;
54849;SDS011;47660;51.334;12.396;2022-10-18T08:24:12;2.83;;;1.60;;
54849;SDS011;47660;51.334;12.396;2022-10-18T08:26:37;3.33;;;2.03;;
54849;SDS011;47660;51.334;12.396;2022-10-18T08:29:02;3.83;;;2.15;;
54849;SDS011;47660;51.334;12.396;2022-10-18T08:31:27;2.80;;;1.65;;
54849;SDS011;47660;51.334;12.396;2022-10-18T08:33:53;3.25;;;1.90;;
54849;SDS011;47660;51.334;12.396;2022-10-18T08:36:19;5.80;;;3.08;;
54849;SDS011;47660;51.334;12.396;2022-10-18T08:38:44;2.72;;;1.60;;
54849;SDS011;47660;51.334;12.396;2022-10-18T08:41:19;2.25;;;1.45;;
54849;SDS011;47660;51.334;12.396;2022-10-18T08:43:52;3.50;;;1.70;;
54849;SDS011;47660;51.334;12.396;2022-10-18T08:46:20;1.92;;;1.27;;
54849;SDS011;47660;51.334;12.396;2022-10-18T08:48:49;3.63;;;1.40;;
54849;SDS011;47660;51.334;12.396;2022-10-18T08:56:29;2.53;;;1.02;;
54849;SDS011;47660;51.334;12.396;2022-10-18T08:58:55;3.78;;;1.10;;
54849;SDS011;47660;51.334;12.396;2022-10-18T09:06:42;1.58;;;0.80;;
54849;SDS011;47660;51.334;12.396;2022-10-18T09:16:49;2.65;;;1.40;;
54849;SDS011;47660;51.334;12.396;2022-10-18T09:21:51;8.27;;;3.65;;
54849;SDS011;47660;51.334;12.396;2022-10-18T09:24:29;2.85;;;1.30;;
54849;SDS011;47660;51.334;12.396;2022-10-18T09:26:59;1.77;;;1.00;;
54849;SDS011;47660;51.334;12.396;2022-10-18T09:29:39;1.60;;;1.08;;
54849;SDS011;47660;51.334;12.396;2022-10-18T09:32:22;1.75;;;1.00;;
54849;SDS011;47660;51.334;12.396;2022-10-18T09:34:50;1.70;;;1.38;;
54849;SDS011;47660;51.334;12.396;2022-10-18T09:37:18;1.92;;;1.05;;
54849;SDS011;47660;51.334;12.396;2022-10-18T09:39:44;2.10;;;1.10;;
54849;SDS011;47660;51.334;12.396;2022-10-18T09:42:23;3.15;;;1.70;;
54849;SDS011;47660;51.334;12.396;2022-10-18T09:44:54;4.28;;;1.95;;
54849;SDS011;47660;51.334;12.396;2022-10-18T09:47:21;3.03;;;1.40;;
54849;SDS011;47660;51.334;12.396;2022-10-18T09:49:50;4.97;;;1.40;;
54849;SDS011;47660;51.334;12.396;2022-10-18T09:52:25;0.95;;;0.73;;
54849;SDS011;47660;51.334;12.396;2022-10-18T09:54:54;3.40;;;1.40;;
54849;SDS011;47660;51.334;12.396;2022-10-18T09:57:38;3.97;;;1.55;;
54849;SDS011;47660;51.334;12.396;2022-10-18T10:00:05;2.75;;;1.35;;
54849;SDS011;47660;51.334;12.396;2022-10-18T10:02:37;3.72;;;1.30;;
54849;SDS011;47660;51.334;12.396;2022-10-18T10:05:03;1.92;;;0.98;;
54849;SDS011;47660;51.334;12.396;2022-10-18T10:07:33;1.73;;;1.02;;
54849;SDS011;47660;51.334;12.396;2022-10-18T10:14:48;1.67;;;1.10;;
54849;SDS011;47660;51.334;12.396;2022-10-18T10:17:21;2.23;;;1.13;;
54849;SDS011;47660;51.334;12.396;2022-10-18T10:22:35;16.67;;;6.43;;
54849;SDS011;47660;51.334;12.396;2022-10-18T10:25:00;9.98;;;5.78;;
54849;SDS011;47660;51.334;12.396;2022-10-18T10:29:55;1.92;;;1.17;;
54849;SDS011;47660;51.334;12.396;2022-10-18T10:32:22;3.28;;;1.30;;
54849;SDS011;47660;51.334;12.396;2022-10-18T10:34:48;2.10;;;1.02;;
54849;SDS011;47660;51.334;12.396;2022-10-18T10:37:50;2.63;;;1.40;;
54849;SDS011;47660;51.334;12.396;2022-10-18T10:40:16;1.25;;;0.93;;
54849;SDS011;47660;51.334;12.396;2022-10-18T10:45:27;2.10;;;1.30;;
54849;SDS011;47660;51.334;12.396;2022-10-18T10:47:53;1.48;;;1.15;;
54849;SDS011;47660;51.334;12.396;2022-10-18T10:50:25;1.63;;;1.13;;
54849;SDS011;47660;51.334;12.396;2022-10-18T10:52:51;2.53;;;1.33;;
54849;SDS011;47660;51.334;12.396;2022-10-18T10:55:17;2.00;;;1.42;;
54849;SDS011;47660;51.334;12.396;2022-10-18T10:57:45;2.45;;;1.48;;
54849;SDS011;47660;51.334;12.396;2022-10-18T11:00:53;2.47;;;1.20;;
54849;SDS011;47660;51.334;12.396;2022-10-18T11:03:32;2.17;;;1.20;;
54849;SDS011;47660;51.334;12.396;2022-10-18T11:05:52;2.78;;;1.38;;
54849;SDS011;47660;51.334;12.396;2022-10-18T11:08:20;2.25;;;1.63;;
54849;SDS011;47660;51.334;12.396;2022-10-18T11:10:49;2.85;;;1.73;;
54849;SDS011;47660;51.334;12.396;2022-10-18T11:15:48;3.60;;;1.58;;
54849;SDS011;47660;51.334;12.396;2022-10-18T11:18:21;2.67;;;1.50;;
54849;SDS011;47660;51.334;12.396;2022-10-18T11:23:13;2.87;;;1.60;;
54849;SDS011;47660;51.334;12.396;2022-10-18T11:28:15;3.92;;;1.60;;
54849;SDS011;47660;51.334;12.396;2022-10-18T11:33:31;2.55;;;1.60;;
54849;SDS011;47660;51.334;12.396;2022-10-18T11:36:11;2.58;;;1.67;;
54849;SDS011;47660;51.334;12.396;2022-10-18T11:59:50;3.92;;;2.95;;
54849;SDS011;47660;51.334;12.396;2022-10-18T12:04:48;2.85;;;1.67;;
54849;SDS011;47660;51.334;12.396;2022-10-18T12:07:16;2.30;;;1.45;;
54849;SDS011;47660;51.334;12.396;2022-10-18T12:09:45;2.42;;;1.63;;
54849;SDS011;47660;51.334;12.396;2022-10-18T12:12:19;3.75;;;1.88;;
54849;SDS011;47660;51.334;12.396;2022-10-18T12:14:47;3.00;;;1.85;;
54849;SDS011;47660;51.334;12.396;2022-10-18T12:19:54;3.95;;;2.03;;
54849;SDS011;47660;51.334;12.396;2022-10-18T12:22:37;2.35;;;1.63;;
54849;SDS011;47660;51.334;12.396;2022-10-18T12:25:03;2.67;;;1.85;;
54849;SDS011;47660;51.334;12.396;2022-10-18T12:27:35;3.63;;;1.95;;
54849;SDS011;47660;51.334;12.396;2022-10-18T12:30:10;2.17;;;1.60;;
54849;SDS011;47660;51.334;12.396;2022-10-18T12:32:38;1.90;;;1.50;;
54849;SDS011;47660;51.334;12.396;2022-10-18T12:35:05;2.80;;;1.60;;
54849;SDS011;47660;51.334;12.396;2022-10-18T12:40:14;4.72;;;1.48;;
54849;SDS011;47660;51.334;12.396;2022-10-18T12:42:47;4.07;;;1.58;;
54849;SDS011;47660;51.334;12.396;2022-10-18T12:47:46;3.40;;;2.03;;
54849;SDS011;47660;51.334;12.396;2022-10-18T12:50:27;4.35;;;1.80;;
54849;SDS011;47660;51.334;12.396;2022-10-18T12:55:31;2.38;;;1.63;;
54849;SDS011;47660;51.334;12.396;2022-10-18T13:03:26;17.58;;;7.40;;
54849;SDS011;47660;51.334;12.396;2022-10-18T13:18:56;9.50;;;5.40;;
54849;SDS011;47660;51.334;12.396;2022-10-18T13:31:56;2.53;;;1.73;;
54849;SDS011;47660;51.334;12.396;2022-10-18T13:34:25;3.97;;;2.20;;
54849;SDS011;47660;51.334;12.396;2022-10-18T13:36:55;2.72;;;1.85;;
54849;SDS011;47660;51.334;12.396;2022-10-18T13:39:21;3.63;;;2.22;;
54849;SDS011;47660;51.334;12.396;2022-10-18T13:52:08;2.92;;;1.95;;
54849;SDS011;47660;51.334;12.396;2022-10-18T13:54:49;3.00;;;1.90;;
54849;SDS011;47660;51.334;12.396;2022-10-18T14:04:44;3.27;;;1.90;;
54849;SDS011;47660;51.334;12.396;2022-10-18T14:07:10;5.70;;;2.45;;
54849;SDS011;47660;51.334;12.396;2022-10-18T14:09:43;3.83;;;2.28;;
54849;SDS011;47660;51.334;12.396;2022-10-18T14:14:47;3.53;;;2.08;;
54849;SDS011;47660;51.334;12.396;2022-10-18T14:25:21;2.33;;;2.03;;
54849;SDS011;47660;51.334;12.396;2022-10-18T14:27:46;3.78;;;2.17;;
54849;SDS011;47660;51.334;12.396;2022-10-18T14:30:13;3.03;;;2.15;;
54849;SDS011;47660;51.334;12.396;2022-10-18T14:32:49;3.08;;;2.33;;
54849;SDS011;47660;51.334;12.396;2022-10-18T14:35:22;3.58;;;2.10;;
54849;SDS011;47660;51.334;12.396;2022-10-18T14:37:49;4.70;;;2.03;;
54849;SDS011;47660;51.334;12.396;2022-10-18T14:40:28;4.07;;;2.53;;
54849;SDS011;47660;51.334;12.396;2022-10-18T14:42:53;2.17;;;1.48;;
54849;SDS011;47660;51.334;12.396;2022-10-18T14:45:21;3.80;;;2.00;;
54849;SDS011;47660;51.334;12.396;2022-10-18T14:47:47;3.00;;;1.80;;
54849;SDS011;47660;51.334;12.396;2022-10-18T14:50:19;1.77;;;1.48;;
54849;SDS011;47660;51.334;12.396;2022-10-18T14:52:45;2.20;;;1.40;;
54849;SDS011;47660;51.334;12.396;2022-10-18T14:55:30;2.88;;;1.65;;
54849;SDS011;47660;51.334;12.396;2022-10-18T14:57:58;2.70;;;1.70;;
54849;SDS011;47660;51.334;12.396;2022-10-18T15:00:24;3.95;;;2.00;;
54849;SDS011;47660;51.334;12.396;2022-10-18T15:02:51;3.33;;;1.80;;
54849;SDS011;47660;51.334;12.396;2022-10-18T15:05:22;2.22;;;1.63;;
54849;SDS011;47660;51.334;12.396;2022-10-18T15:07:51;3.72;;;1.85;;
54849;SDS011;47660;51.334;12.396;2022-10-18T15:10:21;2.72;;;2.00;;
54849;SDS011;47660;51.334;12.396;2022-10-18T15:12:49;3.50;;;2.28;;
54849;SDS011;47660;51.334;12.396;2022-10-18T15:15:17;3.72;;;2.08;;
54849;SDS011;47660;51.334;12.396;2022-10-18T15:17:43;3.05;;;2.28;;
54849;SDS011;47660;51.334;12.396;2022-10-18T15:20:21;4.82;;;2.20;;
54849;SDS011;47660;51.334;12.396;2022-10-18T15:22:51;8.15;;;2.67;;
54849;SDS011;47660;51.334;12.396;2022-10-18T15:27:48;4.10;;;2.40;;
54849;SDS011;47660;51.334;12.396;2022-10-18T15:30:18;3.80;;;2.10;;
54849;SDS011;47660;51.334;12.396;2022-10-18T15:32:49;5.57;;;2.20;;
54849;SDS011;47660;51.334;12.396;2022-10-18T15:35:22;5.72;;;2.78;;
54849;SDS011;47660;51.334;12.396;2022-10-18T15:37:48;4.50;;;2.35;;
54849;SDS011;47660;51.334;12.396;2022-10-18T15:42:47;4.57;;;2.60;;
54849;SDS011;47660;51.334;12.396;2022-10-18T15:58:16;4.05;;;2.38;;
54849;SDS011;47660;51.334;12.396;2022-10-18T16:00:45;3.55;;;2.40;;
54849;SDS011;47660;51.334;12.396;2022-10-18T16:03:11;8.80;;;2.65;;
54849;SDS011;47660;51.334;12.396;2022-10-18T16:05:37;8.27;;;2.72;;
54849;SDS011;47660;51.334;12.396;2022-10-18T16:08:02;3.75;;;2.45;;
54849;SDS011;47660;51.334;12.396;2022-10-18T16:10:28;3.80;;;2.33;;
54849;SDS011;47660;51.334;12.396;2022-10-18T16:12:53;5.30;;;2.45;;
54849;SDS011;47660;51.334;12.396;2022-10-18T16:15:18;5.57;;;2.75;;
54849;SDS011;47660;51.334;12.396;2022-10-18T16:17:44;4.63;;;2.47;;
54849;SDS011;47660;51.334;12.396;2022-10-18T16:20:19;6.10;;;2.50;;
54849;SDS011;47660;51.334;12.396;2022-10-18T16:22:45;5.40;;;2.55;;
54849;SDS011;47660;51.334;12.396;2022-10-18T16:25:10;4.03;;;2.40;;
54849;SDS011;47660;51.334;12.396;2022-10-18T16:27:35;4.40;;;2.57;;
54849;SDS011;47660;51.334;12.396;2022-10-18T16:30:00;4.80;;;2.43;;
54849;SDS011;47660;51.334;12.396;2022-10-18T16:32:26;4.57;;;2.43;;
54849;SDS011;47660;51.334;12.396;2022-10-18T16:34:51;4.57;;;2.72;;
54849;SDS011;47660;51.334;12.396;2022-10-18T16:37:16;4.87;;;2.43;;
54849;SDS011;47660;51.334;12.396;2022-10-18T16:39:41;7.30;;;2.60;;
54849;SDS011;47660;51.334;12.396;2022-10-18T16:42:07;6.40;;;2.53;;
54849;SDS011;47660;51.334;12.396;2022-10-18T16:44:32;9.85;;;3.40;;
54849;SDS011;47660;51.334;12.396;2022-10-18T16:46:57;7.73;;;3.13;;
54849;SDS011;47660;51.334;12.396;2022-10-18T16:49:25;5.22;;;2.60;;
54849;SDS011;47660;51.334;12.396;2022-10-18T16:51:53;4.28;;;2.53;;
54849;SDS011;47660;51.334;12.396;2022-10-18T16:54:19;4.85;;;2.92;;
54849;SDS011;47660;51.334;12.396;2022-10-18T16:56:44;5.22;;;2.40;;
54849;SDS011;47660;51.334;12.396;2022-10-18T16:59:46;5.88;;;3.03;;
54849;SDS011;47660;51.334;12.396;2022-10-18T17:02:05;5.43;;;3.08;;
54849;SDS011;47660;51.334;12.396;2022-10-18T17:04:33;5.32;;;3.20;;
54849;SDS011;47660;51.334;12.396;2022-10-18T17:07:04;5.72;;;2.90;;
54849;SDS011;47660;51.334;12.396;2022-10-18T17:09:29;5.20;;;3.20;;
54849;SDS011;47660;51.334;12.396;2022-10-18T17:11:55;5.20;;;2.88;;
54849;SDS011;47660;51.334;12.396;2022-10-18T17:14:20;9.80;;;4.05;;
54849;SDS011;47660;51.334;12.396;2022-10-18T17:16:45;5.00;;;2.58;;
54849;SDS011;47660;51.334;12.396;2022-10-18T17:19:11;5.88;;;2.50;;
54849;SDS011;47660;51.334;12.396;2022-10-18T17:21:36;4.38;;;2.35;;
54849;SDS011;47660;51.334;12.396;2022-10-18T17:24:01;4.20;;;2.28;;
54849;SDS011;47660;51.334;12.396;2022-10-18T17:26:28;4.18;;;2.58;;
54849;SDS011;47660;51.334;12.396;2022-10-18T17:28:54;3.22;;;2.30;;
54849;SDS011;47660;51.334;12.396;2022-10-18T17:31:21;4.47;;;2.63;;
54849;SDS011;47660;51.334;12.396;2022-10-18T17:33:49;5.45;;;3.13;;